createdAt,value
2022-10-01T00:01:15.231Z,-20154.09
2022-10-01T00:03:43.743Z,-20152.25
2022-10-01T00:06:13.426Z,-20155.63
2022-10-01T00:08:42.748Z,-20155.47
2022-10-01T00:11:12.390Z,-20156.25
2022-10-01T00:13:40.421Z,-20158.38
2022-10-01T00:16:14.135Z,-20159.31
2022-10-01T00:18:43.951Z,-20161.75
2022-10-01T00:21:13.588Z,-20161.44
2022-10-01T00:23:42.515Z,-20161.91
2022-10-01T00:26:12.636Z,-20165.13
2022-10-01T00:28:40.374Z,-20164.97
2022-10-01T00:31:11.190Z,-20170.94
2022-10-01T00:33:39.567Z,-20170.78
2022-10-01T00:36:09.910Z,-20173.84
2022-10-01T00:38:37.989Z,-20182.13
2022-10-01T00:41:06.158Z,-20185.19
2022-10-01T00:43:36.848Z,-20191.00
2022-10-01T00:46:10.714Z,-20196.69
2022-10-01T00:48:48.898Z,-20200.66
2022-10-01T00:51:16.637Z,-20212.28
2022-10-01T00:53:46.038Z,-20213.66
2022-10-01T00:56:14.065Z,-20210.91
2022-10-01T00:58:43.710Z,-20219.50
2022-10-01T01:01:11.529Z,-20226.69
2022-10-01T01:03:40.840Z,-20234.31
2022-10-01T01:06:09.842Z,-20243.06
2022-10-01T01:08:37.672Z,-20249.94
2022-10-01T01:11:13.151Z,-20253.59
2022-10-01T01:13:50.149Z,-20254.38
2022-10-01T01:16:26.293Z,-20259.72
2022-10-01T01:19:03.169Z,-20260.63
2022-10-01T01:21:35.166Z,-20261.25
2022-10-01T01:24:16.113Z,-20260.94
2022-10-01T01:26:55.953Z,-20264.59
2022-10-01T01:29:30.283Z,-20265.06
2022-10-01T01:32:02.510Z,-20264.31
2022-10-01T01:34:32.633Z,-20266.28
2022-10-01T01:37:04.978Z,-20264.59
2022-10-01T01:39:34.607Z,-20263.84
2022-10-01T01:42:09.310Z,-20266.75
2022-10-01T01:44:43.970Z,-20268.28
2022-10-01T01:47:13.653Z,-20271.03
2022-10-01T01:49:43.913Z,-20270.88
2022-10-01T01:52:15.865Z,-20270.56
2022-10-01T01:54:46.810Z,-20271.34
2022-10-01T01:57:15.444Z,-20270.88
2022-10-01T01:59:44.863Z,-20272.88
2022-10-01T02:02:14.944Z,-20271.63
2022-10-01T02:04:46.112Z,-20260.94
2022-10-01T02:07:52.703Z,-20260.63
2022-10-01T02:10:34.625Z,-20265.97
2022-10-01T02:13:20.174Z,-20268.59
2022-10-01T02:16:01.221Z,-20272.25
2022-10-01T02:18:34.978Z,-20272.72
2022-10-01T02:21:18.099Z,-20276.84
2022-10-01T02:23:50.017Z,-20279.28
2022-10-01T02:26:22.013Z,-20280.19
2022-10-01T02:28:54.195Z,-20279.59
2022-10-01T02:31:24.540Z,-20280.03
2022-10-01T02:33:55.389Z,-20281.13
2022-10-01T02:36:26.002Z,-20281.41
2022-10-01T02:38:55.747Z,-20281.72
2022-10-01T02:41:29.957Z,-20279.88
2022-10-01T02:44:02.299Z,-20281.88
2022-10-01T02:46:37.706Z,-20279.13
2022-10-01T02:49:05.889Z,-20270.13
2022-10-01T02:51:44.129Z,-20261.84
2022-10-01T02:54:17.054Z,-20254.53
2022-10-01T02:57:02.562Z,-20250.25
2022-10-01T02:59:30.193Z,-20246.56
2022-10-01T03:01:59.254Z,-20245.03
2022-10-01T03:04:27.200Z,-20241.97
2022-10-01T03:06:54.726Z,-20243.19
2022-10-01T03:09:22.322Z,-20248.25
2022-10-01T03:11:50.099Z,-20250.25
2022-10-01T03:14:17.795Z,-20254.22
2022-10-01T03:16:45.566Z,-20262.78
2022-10-01T03:19:14.673Z,-20263.09
2022-10-01T03:21:42.370Z,-20269.50
2022-10-01T03:24:10.201Z,-20268.75
2022-10-01T03:26:38.255Z,-20272.09
2022-10-01T03:29:06.217Z,-20275.31
2022-10-01T03:31:34.263Z,-20278.97
2022-10-01T03:34:01.998Z,-20279.88
2022-10-01T03:36:31.234Z,-20281.13
2022-10-01T03:38:58.825Z,-20282.66
2022-10-01T03:41:26.422Z,-20286.47
2022-10-01T03:43:58.323Z,-20286.00
2022-10-01T03:46:28.283Z,-20288.16
2022-10-01T03:48:57.209Z,-20287.22
2022-10-01T03:51:25.320Z,-20287.22
2022-10-01T03:53:54.342Z,-20287.84
2022-10-01T03:56:22.343Z,-20287.53
2022-10-01T03:58:50.208Z,-20286.16
2022-10-01T04:01:18.067Z,-20286.16
2022-10-01T04:03:46.339Z,-20282.66
2022-10-01T04:06:14.485Z,-20280.50
2022-10-01T04:08:42.094Z,-20277.44
2022-10-01T04:11:11.697Z,-20274.69
2022-10-01T04:13:39.301Z,-20273.03
2022-10-01T04:16:07.779Z,-20271.34
2022-10-01T04:18:35.727Z,-20268.88
2022-10-01T04:21:04.578Z,-20266.91
2022-10-01T04:23:32.349Z,-20266.75
2022-10-01T04:26:02.304Z,-20262.47
2022-10-01T04:28:31.984Z,-20262.78
2022-10-01T04:31:13.777Z,-20262.31
2022-10-01T04:33:41.714Z,-20260.47
2022-10-01T04:36:09.356Z,-20257.88
2022-10-01T04:38:37.122Z,-20259.25
2022-10-01T04:41:04.687Z,-20260.03
2022-10-01T04:43:33.681Z,-20259.88
2022-10-01T04:46:01.271Z,-20254.97
2022-10-01T04:48:28.993Z,-20257.44
2022-10-01T04:50:56.554Z,-20256.19
2022-10-01T04:53:24.422Z,-20255.75
2022-10-01T04:55:52.181Z,-20255.28
2022-10-01T04:58:19.761Z,-20255.75
2022-10-01T05:00:49.382Z,-20254.81
2022-10-01T05:03:18.201Z,-20255.13
2022-10-01T05:05:45.799Z,-20254.53
2022-10-01T05:08:13.450Z,-20254.69
2022-10-01T05:10:41.104Z,-20255.44
2022-10-01T05:13:08.944Z,-20254.22
2022-10-01T05:15:36.973Z,-20255.91
2022-10-01T05:18:06.157Z,-20255.44
2022-10-01T05:20:34.633Z,-20256.81
2022-10-01T05:23:02.158Z,-20256.34
2022-10-01T05:25:29.749Z,-20257.88
2022-10-01T05:28:05.251Z,-20258.19
2022-10-01T05:30:34.016Z,-20258.34
2022-10-01T05:33:03.691Z,-20258.50
2022-10-01T05:35:32.876Z,-20259.41
2022-10-01T05:38:02.611Z,-20260.03
2022-10-01T05:40:31.314Z,-20260.94
2022-10-01T05:43:00.460Z,-20261.84
2022-10-01T05:45:29.195Z,-20260.47
2022-10-01T05:47:58.683Z,-20260.03
2022-10-01T05:50:26.627Z,-20260.03
2022-10-01T05:52:55.820Z,-20260.03
2022-10-01T05:55:24.873Z,-20260.34
2022-10-01T05:57:59.430Z,-20260.63
2022-10-01T06:00:29.179Z,-20260.03
2022-10-01T06:02:57.834Z,-20259.72
2022-10-01T06:05:26.301Z,-20260.03
2022-10-01T06:07:55.508Z,-20259.72
2022-10-01T06:10:24.727Z,-20260.63
2022-10-01T06:12:52.959Z,-20260.47
2022-10-01T06:15:20.862Z,-20260.63
2022-10-01T06:17:48.499Z,-20262.16
2022-10-01T06:20:19.196Z,-20261.56
2022-10-01T06:22:55.953Z,-20262.16
2022-10-01T06:25:24.426Z,-20260.63
2022-10-01T06:27:55.324Z,-20261.69
2022-10-01T06:30:23.300Z,-20260.78
2022-10-01T06:32:50.860Z,-20262.16
2022-10-01T06:35:20.253Z,-20263.84
2022-10-01T06:37:48.184Z,-20263.69
2022-10-01T06:40:17.354Z,-20262.63
2022-10-01T06:42:48.773Z,-20264.44
2022-10-01T06:45:17.850Z,-20263.38
2022-10-01T06:47:45.466Z,-20262.47
2022-10-01T06:50:12.998Z,-20263.38
2022-10-01T06:52:52.468Z,-20264.00
2022-10-01T06:55:23.245Z,-20264.44
2022-10-01T06:57:55.413Z,-20265.22
2022-10-01T07:00:23.895Z,-20265.97
2022-10-01T07:02:51.816Z,-20264.16
2022-10-01T07:05:19.697Z,-20263.69
2022-10-01T07:07:48.273Z,-20263.38
2022-10-01T07:10:17.159Z,-20264.31
2022-10-01T07:12:48.864Z,-20264.44
2022-10-01T07:15:17.887Z,-20265.97
2022-10-01T07:17:48.312Z,-20264.00
2022-10-01T07:20:17.654Z,-20265.06
2022-10-01T07:22:46.286Z,-20266.75
2022-10-01T07:25:14.695Z,-20266.75
2022-10-01T07:27:42.635Z,-20267.22
2022-10-01T07:30:12.683Z,-20267.81
2022-10-01T07:32:40.351Z,-20268.59
2022-10-01T07:35:09.006Z,-20268.88
2022-10-01T07:37:37.222Z,-20267.50
2022-10-01T07:40:07.492Z,-20266.75
2022-10-01T07:42:35.549Z,-20267.06
2022-10-01T07:45:06.696Z,-20267.22
2022-10-01T07:47:35.914Z,-20267.97
2022-10-01T07:50:03.717Z,-20266.91
2022-10-01T07:52:31.237Z,-20267.06
2022-10-01T07:54:58.778Z,-20266.13
2022-10-01T07:57:26.340Z,-20265.84
2022-10-01T07:59:56.013Z,-20264.91
2022-10-01T08:02:23.975Z,-20265.53
2022-10-01T08:05:10.492Z,-20265.22
2022-10-01T08:07:38.063Z,-20266.75
2022-10-01T08:10:06.573Z,-20266.75
2022-10-01T08:12:34.246Z,-20267.34
2022-10-01T08:15:02.130Z,-20268.28
2022-10-01T08:17:29.760Z,-20270.13
2022-10-01T08:19:58.688Z,-20269.81
2022-10-01T08:22:26.465Z,-20270.88
2022-10-01T08:24:54.156Z,-20272.56
2022-10-01T08:27:21.904Z,-20273.31
2022-10-01T08:29:49.612Z,-20273.78
2022-10-01T08:32:17.148Z,-20274.84
2022-10-01T08:34:44.686Z,-20278.66
2022-10-01T08:37:14.313Z,-20278.38
2022-10-01T08:39:41.890Z,-20279.13
2022-10-01T08:42:22.590Z,-20278.38
2022-10-01T08:44:53.188Z,-20278.66
2022-10-01T08:47:34.882Z,-20279.13
2022-10-01T08:50:13.044Z,-20281.88
2022-10-01T08:52:49.443Z,-20282.50
2022-10-01T08:55:21.355Z,-20284.78
2022-10-01T08:57:53.051Z,-20284.47
2022-10-01T09:00:21.282Z,-20285.09
2022-10-01T09:02:50.432Z,-20285.25
2022-10-01T09:05:24.734Z,-20287.22
2022-10-01T09:08:15.265Z,-20285.72
2022-10-01T09:10:46.362Z,-20285.41
2022-10-01T09:13:32.224Z,-20286.78
2022-10-01T09:16:08.135Z,-20287.06
2022-10-01T09:18:51.751Z,-20289.53
2022-10-01T09:21:24.157Z,-20289.97
2022-10-01T09:24:05.014Z,-20291.22
2022-10-01T09:26:33.467Z,-20291.06
2022-10-01T09:29:02.564Z,-20292.88
2022-10-01T09:31:40.732Z,-20293.34
2022-10-01T09:34:14.370Z,-20293.94
2022-10-01T09:36:48.662Z,-20297.63
2022-10-01T09:39:25.534Z,-20299.31
2022-10-01T09:41:53.375Z,-20302.50
2022-10-01T09:44:29.130Z,-20302.50
2022-10-01T09:46:57.967Z,-20300.53
2022-10-01T09:49:33.755Z,-20302.19
2022-10-01T09:52:07.479Z,-20305.25
2022-10-01T09:54:43.447Z,-20308.47
2022-10-01T09:57:14.961Z,-20309.38
2022-10-01T09:59:53.032Z,-20310.59
2022-10-01T10:02:26.545Z,-20315.63
2022-10-01T10:05:01.639Z,-20315.34
2022-10-01T10:07:32.437Z,-20317.16
2022-10-01T10:10:12.968Z,-20322.06
2022-10-01T10:12:44.043Z,-20325.09
2022-10-01T10:15:18.061Z,-20326.31
2022-10-01T10:17:49.057Z,-20334.56
2022-10-01T10:20:25.601Z,-20338.22
2022-10-01T10:22:53.452Z,-20347.69
2022-10-01T10:25:25.279Z,-20352.13
2022-10-01T10:27:59.578Z,-20363.72
2022-10-01T10:30:27.902Z,-20375.59
2022-10-01T10:33:04.854Z,-20373.16
2022-10-01T10:35:32.992Z,-20367.22
2022-10-01T10:38:02.267Z,-20365.69
2022-10-01T10:40:36.006Z,-20364.47
2022-10-01T10:43:03.831Z,-20361.88
2022-10-01T10:45:36.558Z,-20366.31
2022-10-01T10:48:07.742Z,-20367.69
2022-10-01T10:50:39.144Z,-20373.31
2022-10-01T10:53:21.951Z,-20365.53
2022-10-01T10:56:00.211Z,-20371.19
2022-10-01T10:58:29.811Z,-20364.47
2022-10-01T11:01:01.267Z,-20366.75
2022-10-01T11:03:32.161Z,-20369.19
2022-10-01T11:06:11.280Z,-20372.41
2022-10-01T11:08:40.611Z,-20370.88
2022-10-01T11:11:30.903Z,-20379.41
2022-10-01T11:14:10.360Z,-20377.13
2022-10-01T11:16:51.507Z,-20381.09
2022-10-01T11:19:40.019Z,-20377.59
2022-10-01T11:22:19.663Z,-20377.88
2022-10-01T11:25:02.879Z,-20378.81
2022-10-01T11:27:43.201Z,-20380.94
2022-10-01T11:30:16.342Z,-20380.94
2022-10-01T11:32:51.156Z,-20378.50
2022-10-01T11:35:50.141Z,-20372.69
2022-10-01T11:38:45.769Z,-20372.56
2022-10-01T11:41:23.044Z,-20377.59
2022-10-01T11:43:54.725Z,-20384.75
2022-10-01T11:46:34.554Z,-20381.53
2022-10-01T11:49:12.942Z,-20377.44
2022-10-01T11:51:47.590Z,-20376.97
2022-10-01T11:54:22.113Z,-20374.22
2022-10-01T11:57:09.388Z,-20373.16
2022-10-01T11:59:42.429Z,-20372.41
2022-10-01T12:02:19.451Z,-20374.38
2022-10-01T12:04:53.421Z,-20375.75
2022-10-01T12:07:28.258Z,-20390.69
2022-10-01T12:10:01.701Z,-20420.41
2022-10-01T12:12:35.955Z,-20410.19
2022-10-01T12:15:13.337Z,-20424.19
2022-10-01T12:17:48.772Z,-20421.75
2022-10-01T12:20:28.636Z,-20428.91
2022-10-01T12:22:59.002Z,-20404.72
2022-10-01T12:25:37.968Z,-20402.28
2022-10-01T12:28:10.619Z,-20402.28
2022-10-01T12:30:47.272Z,-20394.66
2022-10-01T12:33:43.348Z,-20392.53
2022-10-01T12:36:21.811Z,-20386.28
2022-10-01T12:39:02.598Z,-20380.63
2022-10-01T12:41:42.049Z,-20383.06
2022-10-01T12:44:29.646Z,-20382.16
2022-10-01T12:47:15.005Z,-20392.38
2022-10-01T12:49:50.394Z,-20402.41
2022-10-01T12:52:34.330Z,-20403.78
2022-10-01T12:55:24.138Z,-20398.31
2022-10-01T12:58:00.046Z,-20399.22
2022-10-01T13:00:31.951Z,-20389.16
2022-10-01T13:03:32.024Z,-20392.81
2022-10-01T13:06:15.967Z,-20395.41
2022-10-01T13:08:55.226Z,-20390.38
2022-10-01T13:11:42.506Z,-20382.16
2022-10-01T13:14:14.062Z,-20383.97
2022-10-01T13:16:54.291Z,-20378.03
2022-10-01T13:19:31.985Z,-20378.50
2022-10-01T13:22:09.906Z,-20374.84
2022-10-01T13:24:43.241Z,-20378.03
2022-10-01T13:27:18.626Z,-20373.47
2022-10-01T13:29:55.625Z,-20375.13
2022-10-01T13:32:27.949Z,-20378.19
2022-10-01T13:34:58.550Z,-20371.94
2022-10-01T13:37:35.016Z,-20368.75
2022-10-01T13:40:03.117Z,-20364.94
2022-10-01T13:42:38.530Z,-20367.06
2022-10-01T13:45:08.808Z,-20371.63
2022-10-01T13:47:41.189Z,-20379.41
2022-10-01T13:50:23.679Z,-20387.47
2022-10-01T13:52:51.610Z,-20400.75
2022-10-01T13:55:28.608Z,-20413.53
2022-10-01T13:58:03.995Z,-20418.72
2022-10-01T14:00:31.595Z,-20422.38
2022-10-01T14:03:03.909Z,-20427.84
2022-10-01T14:05:37.168Z,-20417.66
2022-10-01T14:08:13.334Z,-20420.53
2022-10-01T14:10:59.417Z,-20421.75
2022-10-01T14:13:47.443Z,-20424.03
2022-10-01T14:16:16.182Z,-20424.19
2022-10-01T14:18:48.730Z,-20422.38
2022-10-01T14:21:36.546Z,-20421.47
2022-10-01T14:24:17.054Z,-20416.75
2022-10-01T14:26:52.384Z,-20423.59
2022-10-01T14:29:33.719Z,-20424.66
2022-10-01T14:32:15.773Z,-20419.94
2022-10-01T14:34:55.698Z,-20414.91
2022-10-01T14:37:24.832Z,-20419.31
2022-10-01T14:40:02.517Z,-20425.72
2022-10-01T14:42:30.209Z,-20424.34
2022-10-01T14:44:57.802Z,-20422.97
2022-10-01T14:47:27.779Z,-20418.88
2022-10-01T14:49:56.093Z,-20420.25
2022-10-01T14:52:29.102Z,-20418.09
2022-10-01T14:55:01.151Z,-20415.53
2022-10-01T14:57:31.648Z,-20410.81
2022-10-01T15:00:02.257Z,-20407.00
2022-10-01T15:02:29.902Z,-20408.97
2022-10-01T15:04:58.341Z,-20406.38
2022-10-01T15:07:35.773Z,-20402.88
2022-10-01T15:10:08.052Z,-20399.84
2022-10-01T15:12:40.769Z,-20396.47
2022-10-01T15:15:18.712Z,-20393.44
2022-10-01T15:17:46.662Z,-20390.38
2022-10-01T15:20:14.946Z,-20386.28
2022-10-01T15:22:45.485Z,-20381.25
2022-10-01T15:25:20.736Z,-20377.44
2022-10-01T15:27:49.609Z,-20375.28
2022-10-01T15:30:19.136Z,-20372.84
2022-10-01T15:32:47.630Z,-20371.78
2022-10-01T15:35:19.182Z,-20369.66
2022-10-01T15:37:50.391Z,-20369.66
2022-10-01T15:40:26.328Z,-20369.34
2022-10-01T15:43:14.362Z,-20369.19
2022-10-01T15:45:42.678Z,-20370.13
2022-10-01T15:48:29.850Z,-20371.50
2022-10-01T15:51:02.112Z,-20366.91
2022-10-01T15:53:31.758Z,-20367.81
2022-10-01T15:56:01.717Z,-20366.59
2022-10-01T15:58:32.403Z,-20369.50
2022-10-01T16:01:04.331Z,-20367.97
2022-10-01T16:03:35.178Z,-20368.75
2022-10-01T16:06:04.946Z,-20368.44
2022-10-01T16:08:37.391Z,-20368.13
2022-10-01T16:11:18.938Z,-20369.97
2022-10-01T16:13:48.688Z,-20368.13
2022-10-01T16:16:26.344Z,-20369.66
2022-10-01T16:18:58.004Z,-20371.50
2022-10-01T16:21:26.426Z,-20371.03
2022-10-01T16:23:56.709Z,-20372.09
2022-10-01T16:26:40.008Z,-20371.78
2022-10-01T18:00:13.865Z,-20365.69
2022-10-01T18:02:43.548Z,-20364.94
2022-10-01T18:05:12.531Z,-20364.78
2022-10-01T18:07:40.944Z,-20364.47
2022-10-01T18:10:11.678Z,-20363.25
2022-10-01T18:12:39.453Z,-20363.88
2022-10-01T18:15:08.214Z,-20363.09
2022-10-01T18:17:43.011Z,-20361.88
2022-10-01T18:20:12.762Z,-20362.47
2022-10-01T18:22:40.435Z,-20362.34
2022-10-01T18:25:08.773Z,-20361.41
2022-10-01T18:27:36.609Z,-20359.28
2022-10-01T18:30:04.487Z,-20357.16
2022-10-01T18:32:37.374Z,-20358.97
2022-10-01T18:35:14.937Z,-20356.84
2022-10-01T18:37:47.686Z,-20354.72
2022-10-01T18:40:19.404Z,-20355.00
2022-10-01T18:42:52.296Z,-20356.38
2022-10-01T18:45:31.627Z,-20355.94
2022-10-01T18:48:14.544Z,-20353.19
2022-10-01T18:50:50.408Z,-20354.09
2022-10-01T18:53:37.372Z,-20353.47
2022-10-01T18:56:20.013Z,-20353.47
2022-10-01T18:59:18.555Z,-20354.72
2022-10-01T19:01:56.783Z,-20352.56
2022-10-01T19:04:45.685Z,-20353.47
2022-10-01T19:07:28.195Z,-20354.56
2022-10-01T19:10:09.105Z,-20350.88
2022-10-01T19:12:50.063Z,-20350.88
2022-10-01T19:15:27.084Z,-20350.75
2022-10-01T19:18:08.338Z,-20351.03
2022-10-01T19:20:55.119Z,-20349.81
2022-10-01T19:23:53.200Z,-20346.94
2022-10-01T19:26:29.442Z,-20349.06
2022-10-01T19:29:14.261Z,-20349.06
2022-10-01T19:31:50.205Z,-20348.59
2022-10-01T19:34:23.582Z,-20348.00
2022-10-01T19:36:56.022Z,-20346.47
2022-10-01T19:39:27.237Z,-20347.84
2022-10-01T19:42:02.035Z,-20349.53
2022-10-01T19:44:36.421Z,-20348.44
2022-10-01T19:47:16.542Z,-20349.22
2022-10-01T19:49:48.692Z,-20348.91
2022-10-01T19:52:18.260Z,-20349.06
2022-10-01T19:54:49.761Z,-20347.53
2022-10-01T19:57:23.515Z,-20349.06
2022-10-01T19:59:57.272Z,-20345.84
2022-10-01T20:02:33.475Z,-20350.75
2022-10-01T20:05:04.826Z,-20348.31
2022-10-01T20:07:42.234Z,-20351.97
2022-10-01T20:10:19.859Z,-20352.56
2022-10-01T20:12:56.826Z,-20355.94
2022-10-01T20:15:39.730Z,-20357.75
2022-10-01T20:18:19.251Z,-20358.38
2022-10-01T20:20:57.386Z,-20361.09
2022-10-01T20:23:37.884Z,-20362.34
2022-10-01T20:26:16.027Z,-20364.31
2022-10-01T20:29:03.992Z,-20364.78
2022-10-01T20:31:39.369Z,-20366.75
2022-10-01T20:34:18.422Z,-20367.38
2022-10-01T20:36:54.222Z,-20368.13
2022-10-01T20:39:26.897Z,-20366.91
2022-10-01T20:41:56.359Z,-20365.69
2022-10-01T20:44:28.909Z,-20365.69
2022-10-01T20:47:01.937Z,-20364.00
2022-10-01T20:49:35.262Z,-20361.25
2022-10-01T20:52:12.291Z,-20360.03
2022-10-01T20:54:44.931Z,-20357.75
2022-10-01T20:57:20.307Z,-20356.22
2022-10-01T20:59:52.842Z,-20353.63
2022-10-01T21:02:32.719Z,-20353.63
2022-10-01T21:05:05.361Z,-20351.97
2022-10-01T21:07:38.876Z,-20349.22
2022-10-01T21:10:19.853Z,-20348.31
2022-10-01T21:12:58.382Z,-20347.22
2022-10-01T21:15:39.661Z,-20346.31
2022-10-01T21:18:16.740Z,-20347.69
2022-10-01T21:20:57.473Z,-20344.94
2022-10-01T21:23:40.551Z,-20342.50
2022-10-01T21:26:14.925Z,-20344.19
2022-10-01T21:29:04.692Z,-20346.16
2022-10-01T21:31:44.886Z,-20348.31
2022-10-01T21:34:15.031Z,-20353.19
2022-10-01T21:36:56.351Z,-20355.78
2022-10-01T21:39:32.778Z,-20357.44
2022-10-01T21:42:12.006Z,-20354.41
2022-10-01T21:45:12.105Z,-20353.78
2022-10-01T21:48:00.496Z,-20349.53
2022-10-01T21:50:38.417Z,-20350.28
2022-10-01T21:53:19.698Z,-20350.44
2022-10-01T21:56:03.417Z,-20348.59
2022-10-01T21:58:49.634Z,-20347.53
2022-10-01T22:01:25.224Z,-20349.22
2022-10-01T22:04:01.996Z,-20348.31
2022-10-01T22:06:36.221Z,-20350.13
2022-10-01T22:09:14.045Z,-20350.13
2022-10-01T22:11:48.727Z,-20351.03
2022-10-01T22:14:18.531Z,-20346.16
2022-10-01T22:16:52.259Z,-20345.84
2022-10-01T22:19:26.870Z,-20347.84
2022-10-01T22:21:59.947Z,-20345.25
2022-10-01T22:24:32.913Z,-20341.59
2022-10-01T22:27:12.491Z,-20341.75
2022-10-01T22:29:45.413Z,-20340.81
2022-10-01T22:32:16.365Z,-20340.81
2022-10-01T22:34:50.143Z,-20336.56
2022-10-01T22:37:22.415Z,-20336.41
2022-10-01T22:39:55.614Z,-20338.22
2022-10-01T22:42:28.829Z,-20338.22
2022-10-01T22:44:56.563Z,-20338.22
2022-10-01T22:47:44.106Z,-20335.47
2022-10-01T22:50:28.702Z,-20337.16
2022-10-01T22:53:09.286Z,-20336.41
2022-10-01T22:55:48.147Z,-20336.09
2022-10-01T22:58:33.515Z,-20336.41
2022-10-01T23:01:12.918Z,-20338.06
2022-10-01T23:03:51.148Z,-20339.91
2022-10-01T23:06:30.213Z,-20342.66
2022-10-01T23:09:04.575Z,-20342.50
2022-10-01T23:11:41.038Z,-20342.81
2022-10-01T23:14:23.466Z,-20346.31
2022-10-01T23:16:57.057Z,-20345.84
2022-10-01T23:19:36.849Z,-20346.16
2022-10-01T23:22:17.111Z,-20346.16
2022-10-01T23:25:01.356Z,-20343.56
2022-10-01T23:27:40.990Z,-20345.25
2022-10-01T23:30:11.935Z,-20345.41
2022-10-01T23:32:51.897Z,-20342.81
2022-10-01T23:35:21.718Z,-20342.66
2022-10-01T23:38:07.675Z,-20343.72
2022-10-01T23:40:39.709Z,-20342.66
2022-10-01T23:43:12.497Z,-20344.19
2022-10-01T23:45:46.075Z,-20344.78
2022-10-01T23:48:19.098Z,-20344.03
2022-10-01T23:50:54.979Z,-20345.09
2022-10-01T23:53:28.715Z,-20345.25
2022-10-01T23:56:21.387Z,-20345.25
2022-10-01T23:58:54.919Z,-20345.25
